Baker Lake Airport
CYBK : now visible

Airfield :











YOU CAN JOIN US ON...

 
LOGIN :

Register | Disclaimer

   EN    FR    IT 

 









Legend :    VFR   Marginal VFR   IFR   Intensive IFR   Very Intensive IFR
Visi :
Ceiling :
>= 8 km
>= 3000ft
5 to 8 km
1000 to 3000 ft
1500m to 5 km
500 to 1000 ft
800 to 1500m
200 to 500 ft
< 800m
< 200 ft
Symbols :   Thunderstorms  Fog  Heavy snow  Heavy precipitations  Wind > 20 kt







- Airport Elevation : 59 ft
- IATA code : YBK


CYBK - Baker Lake

CURRENT METAR :
  • 211730Z 08010KT 20SM -RA OVC008 06/05 A2959 RMK SC8 SLP023

EXPIRED METARs :
  • 211718Z 08009KT 20SM -RA OVC007 06/05 A2960 RMK SC8 SLP025
  • 211700Z 08010KT 20SM -RA OVC008 05/05 A2960 RMK SC8 SLP026
  • 211620Z 09009KT 20SM -RA OVC008 05/05 A2961 RMK SC8 SLP030
  • 211600Z 08010KT 20SM -RA OVC007 05/05 A2962 RMK SC8 SLP032
  • 211500Z 08011KT 20SM -RA OVC006 06/05 A2961 RMK ST8 SLP030

TAF AMD TAF CYBK
Valid from the 21 at 12:00 until the 22 at 00:00 UTC


211240Z 2112/2124 10015KT P6SM OVC008
TEMPO 2112/2118 1SM -RA BR OVC003
FM211800 10015KT P6SM OVC005
TEMPO 2118/2124 3SM -SHRA BR OVC010 RMK NXT FCST BY 211800Z
No reported NOTAMs for that airfield.



MET'MAP, your aeronautical weather chart ! - Copyright ORBIFLY December 2007 - Disclaimer

ORBIFLY MET'MAP TEAM :

Programming & Development : Alexandra Zaïnal
Concept & Development : Baudouin d'Aumeries
Co-Development & Prog : Marc-Olivier Méhu
Technical & hardware support : Manuel Goepfert

Contact : metmap@orbifly.com




SOURCES & CREDITS :

   NOAA       Earth
Advisory